Shokyu Maru — JG5288 — position and weather

sailwx.info

Track history (hours):
 
Tides and Currents Weather Stations Pressure Air Temp Water Temp Dewpoint Dewpoint Depression Visibility Wind Speed Wind Dir Waves Ship Positions

Shokyu Maru

Last reported at 2016-Jul-24 00:32 UTC. Time now 2016-Jul-24 01:00 UTC.
Position N 35°31' E 139°46'.

Length 91 m; draft 3.2 m.

Type: Ship. MMSI: 431000253.

Date/timePositionNaut miles runAvg speedWind from/ knotsBaromVisibWave heightAir tempDewpointWater temp
2016-Jul-24 00:32N 35°31' E 139°46'0 0.0
2016-Jul-23 23:32N 35°31' E 139°46'0 0.0
2016-Jul-23 22:32N 35°31' E 139°46'5 4.8
2016-Jul-23 21:33N 35°27' E 139°43'3 3.1
2016-Jul-23 20:33N 35°29' E 139°39'0 0.0
2016-Jul-23 19:33N 35°29' E 139°39'0 0.0
2016-Jul-23 18:33N 35°29' E 139°39'0 0.0
2016-Jul-23 17:33N 35°29' E 139°39'0 0.0
2016-Jul-23 16:33N 35°29' E 139°39'0 0.0
2016-Jul-23 15:33N 35°29' E 139°39'0 0.0
2016-Jul-23 14:33N 35°29' E 139°39'0 0.0
2016-Jul-23 13:33N 35°29' E 139°39'0 0.0
2016-Jul-23 12:33N 35°29' E 139°39'0 0.0
2016-Jul-23 11:33N 35°29' E 139°39'0 0.0
2016-Jul-23 10:33N 35°29' E 139°39'0 0.0
2016-Jul-23 09:33N 35°29' E 139°39'0 0.0
2016-Jul-23 08:33N 35°29' E 139°39'0 0.0
2016-Jul-23 07:33N 35°29' E 139°39'0 0.0
2016-Jul-23 06:33N 35°29' E 139°39'6 2.8
2016-Jul-23 04:33N 35°27' E 139°46'1111.0
2016-Jul-23 03:33N 35°35' E 139°56'6 5.5
2016-Jul-23 02:32N 35°41' E 139°56'0 0.0
2016-Jul-23 01:32N 35°41' E 139°56'0 0.0
2016-Jul-23 00:32N 35°41' E 139°56'0 0.0
2016-Jul-22 23:32N 35°41' E 139°56'0 0.0
2016-Jul-22 22:26N 35°41' E 139°56'2 1.9
2016-Jul-22 21:33N 35°39' E 139°58'4 4.2
2016-Jul-22 20:32N 35°36' E 139°55'0 0.0
2016-Jul-22 19:32N 35°36' E 139°55'0 0.0
2016-Jul-22 18:32N 35°36' E 139°55'0 0.0
2016-Jul-22 17:32N 35°36' E 139°55'0 0.0
2016-Jul-22 16:20N 35°36' E 139°55'0 0.0
2016-Jul-22 15:26N 35°36' E 139°55'0 0.0
2016-Jul-22 14:32N 35°36' E 139°55'3 3.0
2016-Jul-22 13:34N 35°33' E 139°53'6 5.7
2016-Jul-22 12:32N 35°31' E 139°46'0 0.0
2016-Jul-22 11:32N 35°31' E 139°46'0 0.0
2016-Jul-22 10:32N 35°31' E 139°46'0 0.0
2016-Jul-22 09:32N 35°31' E 139°46'0 0.0
2016-Jul-22 08:32N 35°31' E 139°46'0 0.0
2016-Jul-22 07:32N 35°31' E 139°46'0 0.0
2016-Jul-22 04:32N 35°31' E 139°46'5 4.6
2016-Jul-22 03:33N 35°28' E 139°42'6 6.3
2016-Jul-22 02:33N 35°29' E 139°50'1111.2
2016-Jul-22 01:33N 35°38' E 139°59'3 2.6
2016-Jul-22 00:25N 35°41' E 139°59'0 0.0
2016-Jul-21 23:28N 35°41' E 139°59'0 0.0
2016-Jul-21 22:28N 35°41' E 139°59'0 0.0
2016-Jul-21 21:28N 35°41' E 139°59'0 0.0
2016-Jul-21 20:28N 35°41' E 139°59'0 0.0
2016-Jul-21 19:31N 35°41' E 139°59'0 0.0
2016-Jul-21 18:31N 35°41' E 139°59'0 0.0
2016-Jul-21 17:31N 35°41' E 139°59'0 0.0
2016-Jul-21 16:31N 35°41' E 139°59'0 0.0
2016-Jul-21 15:31N 35°41' E 139°59'0 0.0
2016-Jul-21 14:31N 35°41' E 139°59'0 0.0
2016-Jul-21 13:31N 35°41' E 139°59'0 0.0
2016-Jul-21 12:31N 35°41' E 139°59'0 0.0
2016-Jul-21 11:31N 35°41' E 139°59'0 0.0
2016-Jul-21 10:31N 35°41' E 139°59'0 0.0
2016-Jul-21 09:28N 35°41' E 139°59'0 0.0
2016-Jul-21 08:31N 35°41' E 139°59'0 0.0
2016-Jul-21 07:31N 35°41' E 139°59'0 0.0
2016-Jul-21 06:25N 35°41' E 139°59'0 0.0
2016-Jul-21 05:31N 35°41' E 139°59'0 0.2
2016-Jul-21 04:33N 35°41' E 139°59'5 4.8
2016-Jul-21 03:33N 35°36' E 139°56'4 3.5
2016-Jul-21 02:23N 35°41' E 139°56'0 0.0
2016-Jul-21 01:23N 35°41' E 139°56'0 0.0
2016-Jul-21 00:29N 35°41' E 139°56'0 0.0
2016-Jul-20 23:29N 35°41' E 139°56'0 0.0
2016-Jul-20 22:11N 35°41' E 139°56'1 2.1
2016-Jul-20 21:33N 35°40' E 139°58'4 4.0
2016-Jul-20 20:32N 35°36' E 139°55'0 0.0
2016-Jul-20 19:32N 35°36' E 139°55'2 2.2
2016-Jul-20 18:33N 35°34' E 139°53'7 6.8
2016-Jul-20 17:33N 35°31' E 139°46'0 0.0
2016-Jul-20 16:28N 35°31' E 139°46'0 0.0
2016-Jul-20 15:31N 35°31' E 139°46'0 0.0
2016-Jul-20 14:31N 35°31' E 139°46'0 0.0
2016-Jul-20 13:31N 35°31' E 139°46'0 0.0
2016-Jul-20 12:31N 35°31' E 139°46'0 0.0
2016-Jul-20 11:31N 35°31' E 139°46'0 0.0
2016-Jul-20 10:31N 35°31' E 139°46'4 3.8
2016-Jul-20 09:34N 35°28' E 139°45'4 3.4
2016-Jul-20 08:31N 35°29' E 139°49'0 0.0
2016-Jul-20 07:31N 35°29' E 139°49'0 0.0
2016-Jul-20 06:34N 35°29' E 139°49'0 0.0
2016-Jul-20 05:28N 35°29' E 139°49'0 0.0
2016-Jul-20 04:31N 35°29' E 139°49'8 7.8
2016-Jul-20 03:33N 35°35' E 139°55'6 5.5
2016-Jul-20 02:28N 35°41' E 139°56'0 0.0
2016-Jul-20 01:16N 35°41' E 139°56'0 0.0
2016-Jul-20 00:22N 35°41' E 139°56'0 0.0
2016-Jul-19 23:28N 35°41' E 139°56'0 0.0
2016-Jul-19 22:31N 35°41' E 139°56'2 1.9
2016-Jul-19 21:33N 35°39' E 139°58'4 3.7
2016-Jul-19 20:29N 35°36' E 139°55'0 0.1
2016-Jul-19 19:32N 35°36' E 139°55'0 0.0
2016-Jul-19 18:32N 35°36' E 139°55'0 0.0
2016-Jul-19 17:32N 35°36' E 139°55'0 0.0
2016-Jul-19 16:32N 35°36' E 139°55'0 0.0
2016-Jul-19 15:32N 35°36' E 139°55'0 0.0
2016-Jul-19 14:32N 35°36' E 139°55'0 0.0
2016-Jul-19 13:32N 35°36' E 139°55'0 0.0
2016-Jul-19 12:29N 35°36' E 139°55'0 0.1
2016-Jul-19 11:29N 35°36' E 139°55'0 0.0
2016-Jul-19 10:29N 35°36' E 139°55'0 0.0
2016-Jul-19 09:32N 35°36' E 139°55'0 0.0
2016-Jul-19 08:32N 35°36' E 139°55'4 4.3
2016-Jul-19 07:33N 35°33' E 139°58'4 1.4
2016-Jul-19 04:33N 35°30' E 140°02'0 0.0
2016-Jul-19 03:33N 35°30' E 140°02'7 6.6
2016-Jul-19 02:33N 35°34' E 139°56'6 5.5
2016-Jul-19 01:25N 35°41' E 139°56'0 0.0
2016-Jul-19 00:31N 35°41' E 139°56'0 0.0
2016-Jul-18 23:19N 35°41' E 139°56'0 0.0
2016-Jul-18 22:31N 35°41' E 139°56'2 2.6
2016-Jul-18 21:33N 35°39' E 139°58'4 4.0
2016-Jul-18 20:33N 35°35' E 139°55'0 0.0
2016-Jul-18 19:30N 35°35' E 139°55'0 0.0
2016-Jul-18 18:33N 35°35' E 139°55'0 0.1
2016-Jul-18 17:33N 35°35' E 139°55'0 0.0
2016-Jul-18 16:33N 35°36' E 139°55'0 0.0
2016-Jul-18 15:33N 35°36' E 139°55'0 0.0
2016-Jul-18 14:33N 35°36' E 139°55'0 0.0
2016-Jul-18 13:33N 35°36' E 139°55'0 0.0
2016-Jul-18 12:27N 35°36' E 139°55'3 3.7
2016-Jul-18 11:33N 35°33' E 139°57'5 2.4
2016-Jul-18 09:30N 35°29' E 140°01'0 0.0
2016-Jul-18 08:30N 35°29' E 140°01'0 0.0
2016-Jul-18 07:30N 35°29' E 140°01'0 0.0
2016-Jul-18 06:24N 35°29' E 140°01'0 0.0
2016-Jul-18 05:30N 35°29' E 140°01'0 0.0
2016-Jul-18 04:30N 35°29' E 140°01'0 0.0
2016-Jul-18 03:30N 35°29' E 140°01'0 0.0
2016-Jul-18 02:33N 35°29' E 140°01'1 1.4
2016-Jul-18 01:33N 35°30' E 140°02'0 0.0
2016-Jul-18 00:32N 35°30' E 140°02'0 0.0
2016-Jul-17 23:32N 35°30' E 140°02'1 0.9
2016-Jul-17 22:34N 35°30' E 140°01'2 1.8
2016-Jul-17 21:34N 35°32' E 139°60'7 6.2
2016-Jul-17 20:28N 35°36' E 140°06'0 0.0
2016-Jul-17 19:22N 35°36' E 140°06'0 0.0
2016-Jul-17 18:22N 35°36' E 140°06'0 0.0
2016-Jul-17 17:31N 35°36' E 140°06'0 0.0
2016-Jul-17 16:28N 35°36' E 140°06'0 0.0
2016-Jul-17 15:28N 35°36' E 140°06'0 0.0
2016-Jul-17 14:28N 35°36' E 140°06'0 0.0
2016-Jul-17 13:22N 35°36' E 140°06'0 0.0
2016-Jul-17 12:22N 35°36' E 140°06'0 0.0
2016-Jul-17 11:28N 35°36' E 140°06'0 0.0
2016-Jul-17 10:22N 35°36' E 140°06'0 0.0
2016-Jul-17 09:28N 35°36' E 140°06'0 0.0
2016-Jul-17 08:22N 35°36' E 140°06'0 0.0
2016-Jul-17 07:22N 35°36' E 140°06'0 0.0
2016-Jul-17 06:22N 35°36' E 140°06'2 1.0
2016-Jul-17 04:34N 35°35' E 140°04'6 5.8
2016-Jul-17 03:33N 35°37' E 139°57'4 3.6
2016-Jul-17 02:31N 35°41' E 139°56'0 0.0
2016-Jul-17 01:32N 35°41' E 139°56'0 0.0
2016-Jul-17 00:31N 35°41' E 139°56'0 0.0
2016-Jul-16 23:20N 35°41' E 139°56'0 0.0
2016-Jul-16 22:25N 35°41' E 139°56'2 2.6
2016-Jul-16 21:33N 35°39' E 139°58'4 3.9
2016-Jul-16 20:33N 35°36' E 139°55'0 0.0
2016-Jul-16 19:33N 35°36' E 139°55'0 0.0
2016-Jul-16 18:33N 35°36' E 139°55'0 0.0
2016-Jul-16 17:33N 35°36' E 139°55'0 0.0
2016-Jul-16 16:30N 35°36' E 139°55'0 0.0
2016-Jul-16 15:33N 35°36' E 139°55'0 0.0
2016-Jul-16 14:33N 35°36' E 139°55'0 0.0
2016-Jul-16 13:30N 35°36' E 139°55'0 0.0
2016-Jul-16 12:33N 35°36' E 139°55'0 0.1
2016-Jul-16 11:33N 35°36' E 139°55'9 8.8
2016-Jul-16 10:33N 35°31' E 139°46'0 0.3
2016-Jul-16 09:31N 35°31' E 139°46'0 0.0
2016-Jul-16 08:31N 35°31' E 139°46'0 0.0
2016-Jul-16 07:28N 35°31' E 139°46'0 0.0
2016-Jul-16 06:31N 35°31' E 139°46'0 0.0
2016-Jul-16 04:31N 35°31' E 139°46'4 4.7
2016-Jul-16 03:33N 35°27' E 139°44'6 5.5
2016-Jul-16 02:33N 35°29' E 139°50'9 9.3
2016-Jul-16 01:33N 35°37' E 139°57'4 4.0
2016-Jul-16 00:32N 35°41' E 139°56'0 0.0
2016-Jul-15 23:14N 35°41' E 139°56'0 0.0
2016-Jul-15 22:32N 35°41' E 139°56'1 1.5
2016-Jul-15 21:32N 35°39' E 139°58'4 3.8
2016-Jul-15 20:29N 35°36' E 139°55'0 0.0
2016-Jul-15 19:32N 35°36' E 139°55'0 0.0
2016-Jul-15 18:23N 35°36' E 139°55'0 0.0
2016-Jul-15 17:29N 35°36' E 139°55'0 0.0
2016-Jul-15 16:29N 35°36' E 139°55'0 0.0
2016-Jul-15 14:32N 35°36' E 139°55'0 0.0
2016-Jul-15 13:32N 35°36' E 139°55'1 0.8
2016-Jul-15 12:33N 35°35' E 139°56'7 6.9
2016-Jul-15 11:30N 35°31' E 140°03'0 0.0
2016-Jul-15 10:30N 35°31' E 140°03'0 0.0
2016-Jul-15 09:33N 35°31' E 140°03'0 0.0
2016-Jul-15 08:33N 35°31' E 140°03'0 0.0
2016-Jul-15 07:33N 35°31' E 140°03'0 0.0
2016-Jul-15 06:33N 35°31' E 140°03'0 0.0
2016-Jul-15 05:33N 35°31' E 140°03'6 6.3
2016-Jul-15 04:33N 35°35' E 139°57'1 1.4
2016-Jul-15 03:33N 35°35' E 139°55'5 4.8
2016-Jul-15 02:33N 35°40' E 139°57'1 0.8
2016-Jul-15 01:18N 35°41' E 139°56'0 0.0
2016-Jul-15 00:24N 35°41' E 139°56'0 0.0
2016-Jul-14 23:06N 35°41' E 139°56'0 0.0
2016-Jul-14 22:24N 35°41' E 139°56'1 1.8
2016-Jul-14 21:33N 35°39' E 139°58'4 4.3
2016-Jul-14 20:31N 35°36' E 139°55'0 0.0
2016-Jul-14 19:31N 35°36' E 139°55'0 0.0
2016-Jul-14 18:31N 35°36' E 139°55'0 0.0
2016-Jul-14 17:31N 35°36' E 139°55'0 0.0
2016-Jul-14 16:31N 35°36' E 139°55'0 0.0
2016-Jul-14 15:31N 35°36' E 139°55'0 0.0
2016-Jul-14 14:31N 35°36' E 139°55'0 0.0
2016-Jul-14 13:33N 35°36' E 139°55'8 8.2
2016-Jul-14 12:33N 35°29' E 140°01'0 0.1
2016-Jul-14 11:31N 35°29' E 140°01'0 0.0
2016-Jul-14 09:13N 35°29' E 140°01'0 0.0
2016-Jul-14 08:31N 35°29' E 140°01'0 0.0
2016-Jul-14 07:07N 35°29' E 140°01'0 0.0
2016-Jul-14 06:31N 35°29' E 140°01'0 0.0
2016-Jul-14 04:33N 35°29' E 140°01'8 8.4
2016-Jul-14 03:33N 35°37' E 139°59'4 2.0
2016-Jul-14 01:32N 35°41' E 139°56'0 0.0
2016-Jul-14 00:32N 35°41' E 139°56'  
Track history (hours):
 
Tides and Currents Weather Stations Pressure Air Temp Water Temp Dewpoint Dewpoint Depression Visibility Wind Speed Wind Dir Waves Ship Positions

Shokyu Maru

Last reported at 2016-Jul-24 00:32 UTC. Time now 2016-Jul-24 01:00 UTC.
Position N 35°31' E 139°46'.

Length 91 m; draft 3.2 m.

Type: Ship. MMSI: 431000253.

Date/timePositionNaut miles runAvg speedWind from/ knotsBaromVisibWave heightAir tempDewpointWater temp
2016-Jul-24 00:32N 35°31' E 139°46'0 0.0
2016-Jul-23 23:32N 35°31' E 139°46'0 0.0
2016-Jul-23 22:32N 35°31' E 139°46'5 4.8
2016-Jul-23 21:33N 35°27' E 139°43'3 3.1
2016-Jul-23 20:33N 35°29' E 139°39'0 0.0
2016-Jul-23 19:33N 35°29' E 139°39'0 0.0
2016-Jul-23 18:33N 35°29' E 139°39'0 0.0
2016-Jul-23 17:33N 35°29' E 139°39'0 0.0
2016-Jul-23 16:33N 35°29' E 139°39'0 0.0
2016-Jul-23 15:33N 35°29' E 139°39'0 0.0
2016-Jul-23 14:33N 35°29' E 139°39'0 0.0
2016-Jul-23 13:33N 35°29' E 139°39'0 0.0
2016-Jul-23 12:33N 35°29' E 139°39'0 0.0
2016-Jul-23 11:33N 35°29' E 139°39'0 0.0
2016-Jul-23 10:33N 35°29' E 139°39'0 0.0
2016-Jul-23 09:33N 35°29' E 139°39'0 0.0
2016-Jul-23 08:33N 35°29' E 139°39'0 0.0
2016-Jul-23 07:33N 35°29' E 139°39'0 0.0
2016-Jul-23 06:33N 35°29' E 139°39'6 2.8
2016-Jul-23 04:33N 35°27' E 139°46'1111.0
2016-Jul-23 03:33N 35°35' E 139°56'6 5.5
2016-Jul-23 02:32N 35°41' E 139°56'0 0.0
2016-Jul-23 01:32N 35°41' E 139°56'0 0.0
2016-Jul-23 00:32N 35°41' E 139°56'0 0.0
2016-Jul-22 23:32N 35°41' E 139°56'0 0.0
2016-Jul-22 22:26N 35°41' E 139°56'2 1.9
2016-Jul-22 21:33N 35°39' E 139°58'4 4.2
2016-Jul-22 20:32N 35°36' E 139°55'0 0.0
2016-Jul-22 19:32N 35°36' E 139°55'0 0.0
2016-Jul-22 18:32N 35°36' E 139°55'0 0.0
2016-Jul-22 17:32N 35°36' E 139°55'0 0.0
2016-Jul-22 16:20N 35°36' E 139°55'0 0.0
2016-Jul-22 15:26N 35°36' E 139°55'0 0.0
2016-Jul-22 14:32N 35°36' E 139°55'3 3.0
2016-Jul-22 13:34N 35°33' E 139°53'6 5.7
2016-Jul-22 12:32N 35°31' E 139°46'0 0.0
2016-Jul-22 11:32N 35°31' E 139°46'0 0.0
2016-Jul-22 10:32N 35°31' E 139°46'0 0.0
2016-Jul-22 09:32N 35°31' E 139°46'0 0.0
2016-Jul-22 08:32N 35°31' E 139°46'0 0.0
2016-Jul-22 07:32N 35°31' E 139°46'0 0.0
2016-Jul-22 04:32N 35°31' E 139°46'5 4.6
2016-Jul-22 03:33N 35°28' E 139°42'6 6.3
2016-Jul-22 02:33N 35°29' E 139°50'1111.2
2016-Jul-22 01:33N 35°38' E 139°59'3 2.6
2016-Jul-22 00:25N 35°41' E 139°59'0 0.0
2016-Jul-21 23:28N 35°41' E 139°59'0 0.0
2016-Jul-21 22:28N 35°41' E 139°59'0 0.0
2016-Jul-21 21:28N 35°41' E 139°59'0 0.0
2016-Jul-21 20:28N 35°41' E 139°59'0 0.0
2016-Jul-21 19:31N 35°41' E 139°59'0 0.0
2016-Jul-21 18:31N 35°41' E 139°59'0 0.0
2016-Jul-21 17:31N 35°41' E 139°59'0 0.0
2016-Jul-21 16:31N 35°41' E 139°59'0 0.0
2016-Jul-21 15:31N 35°41' E 139°59'0 0.0
2016-Jul-21 14:31N 35°41' E 139°59'0 0.0
2016-Jul-21 13:31N 35°41' E 139°59'0 0.0
2016-Jul-21 12:31N 35°41' E 139°59'0 0.0
2016-Jul-21 11:31N 35°41' E 139°59'0 0.0
2016-Jul-21 10:31N 35°41' E 139°59'0 0.0
2016-Jul-21 09:28N 35°41' E 139°59'0 0.0
2016-Jul-21 08:31N 35°41' E 139°59'0 0.0
2016-Jul-21 07:31N 35°41' E 139°59'0 0.0
2016-Jul-21 06:25N 35°41' E 139°59'0 0.0
2016-Jul-21 05:31N 35°41' E 139°59'0 0.2
2016-Jul-21 04:33N 35°41' E 139°59'5 4.8
2016-Jul-21 03:33N 35°36' E 139°56'4 3.5
2016-Jul-21 02:23N 35°41' E 139°56'0 0.0
2016-Jul-21 01:23N 35°41' E 139°56'0 0.0
2016-Jul-21 00:29N 35°41' E 139°56'0 0.0
2016-Jul-20 23:29N 35°41' E 139°56'0 0.0
2016-Jul-20 22:11N 35°41' E 139°56'1 2.1
2016-Jul-20 21:33N 35°40' E 139°58'4 4.0
2016-Jul-20 20:32N 35°36' E 139°55'0 0.0
2016-Jul-20 19:32N 35°36' E 139°55'2 2.2
2016-Jul-20 18:33N 35°34' E 139°53'7 6.8
2016-Jul-20 17:33N 35°31' E 139°46'0 0.0
2016-Jul-20 16:28N 35°31' E 139°46'0 0.0
2016-Jul-20 15:31N 35°31' E 139°46'0 0.0
2016-Jul-20 14:31N 35°31' E 139°46'0 0.0
2016-Jul-20 13:31N 35°31' E 139°46'0 0.0
2016-Jul-20 12:31N 35°31' E 139°46'0 0.0
2016-Jul-20 11:31N 35°31' E 139°46'0 0.0
2016-Jul-20 10:31N 35°31' E 139°46'4 3.8
2016-Jul-20 09:34N 35°28' E 139°45'4 3.4
2016-Jul-20 08:31N 35°29' E 139°49'0 0.0
2016-Jul-20 07:31N 35°29' E 139°49'0 0.0
2016-Jul-20 06:34N 35°29' E 139°49'0 0.0
2016-Jul-20 05:28N 35°29' E 139°49'0 0.0
2016-Jul-20 04:31N 35°29' E 139°49'8 7.8
2016-Jul-20 03:33N 35°35' E 139°55'6 5.5
2016-Jul-20 02:28N 35°41' E 139°56'0 0.0
2016-Jul-20 01:16N 35°41' E 139°56'0 0.0
2016-Jul-20 00:22N 35°41' E 139°56'0 0.0
2016-Jul-19 23:28N 35°41' E 139°56'0 0.0
2016-Jul-19 22:31N 35°41' E 139°56'2 1.9
2016-Jul-19 21:33N 35°39' E 139°58'4 3.7
2016-Jul-19 20:29N 35°36' E 139°55'0 0.1
2016-Jul-19 19:32N 35°36' E 139°55'0 0.0
2016-Jul-19 18:32N 35°36' E 139°55'0 0.0
2016-Jul-19 17:32N 35°36' E 139°55'0 0.0
2016-Jul-19 16:32N 35°36' E 139°55'0 0.0
2016-Jul-19 15:32N 35°36' E 139°55'0 0.0
2016-Jul-19 14:32N 35°36' E 139°55'0 0.0
2016-Jul-19 13:32N 35°36' E 139°55'0 0.0
2016-Jul-19 12:29N 35°36' E 139°55'0 0.1
2016-Jul-19 11:29N 35°36' E 139°55'0 0.0
2016-Jul-19 10:29N 35°36' E 139°55'0 0.0
2016-Jul-19 09:32N 35°36' E 139°55'0 0.0
2016-Jul-19 08:32N 35°36' E 139°55'4 4.3
2016-Jul-19 07:33N 35°33' E 139°58'4 1.4
2016-Jul-19 04:33N 35°30' E 140°02'0 0.0
2016-Jul-19 03:33N 35°30' E 140°02'7 6.6
2016-Jul-19 02:33N 35°34' E 139°56'6 5.5
2016-Jul-19 01:25N 35°41' E 139°56'0 0.0
2016-Jul-19 00:31N 35°41' E 139°56'0 0.0
2016-Jul-18 23:19N 35°41' E 139°56'0 0.0
2016-Jul-18 22:31N 35°41' E 139°56'2 2.6
2016-Jul-18 21:33N 35°39' E 139°58'4 4.0
2016-Jul-18 20:33N 35°35' E 139°55'0 0.0
2016-Jul-18 19:30N 35°35' E 139°55'0 0.0
2016-Jul-18 18:33N 35°35' E 139°55'0 0.1
2016-Jul-18 17:33N 35°35' E 139°55'0 0.0
2016-Jul-18 16:33N 35°36' E 139°55'0 0.0
2016-Jul-18 15:33N 35°36' E 139°55'0 0.0
2016-Jul-18 14:33N 35°36' E 139°55'0 0.0
2016-Jul-18 13:33N 35°36' E 139°55'0 0.0
2016-Jul-18 12:27N 35°36' E 139°55'3 3.7
2016-Jul-18 11:33N 35°33' E 139°57'5 2.4
2016-Jul-18 09:30N 35°29' E 140°01'0 0.0
2016-Jul-18 08:30N 35°29' E 140°01'0 0.0
2016-Jul-18 07:30N 35°29' E 140°01'0 0.0
2016-Jul-18 06:24N 35°29' E 140°01'0 0.0
2016-Jul-18 05:30N 35°29' E 140°01'0 0.0
2016-Jul-18 04:30N 35°29' E 140°01'0 0.0
2016-Jul-18 03:30N 35°29' E 140°01'0 0.0
2016-Jul-18 02:33N 35°29' E 140°01'1 1.4
2016-Jul-18 01:33N 35°30' E 140°02'0 0.0
2016-Jul-18 00:32N 35°30' E 140°02'0 0.0
2016-Jul-17 23:32N 35°30' E 140°02'1 0.9
2016-Jul-17 22:34N 35°30' E 140°01'2 1.8
2016-Jul-17 21:34N 35°32' E 139°60'7 6.2
2016-Jul-17 20:28N 35°36' E 140°06'0 0.0
2016-Jul-17 19:22N 35°36' E 140°06'0 0.0
2016-Jul-17 18:22N 35°36' E 140°06'0 0.0
2016-Jul-17 17:31N 35°36' E 140°06'0 0.0
2016-Jul-17 16:28N 35°36' E 140°06'0 0.0
2016-Jul-17 15:28N 35°36' E 140°06'0 0.0
2016-Jul-17 14:28N 35°36' E 140°06'0 0.0
2016-Jul-17 13:22N 35°36' E 140°06'0 0.0
2016-Jul-17 12:22N 35°36' E 140°06'0 0.0
2016-Jul-17 11:28N 35°36' E 140°06'0 0.0
2016-Jul-17 10:22N 35°36' E 140°06'0 0.0
2016-Jul-17 09:28N 35°36' E 140°06'0 0.0
2016-Jul-17 08:22N 35°36' E 140°06'0 0.0
2016-Jul-17 07:22N 35°36' E 140°06'0 0.0
2016-Jul-17 06:22N 35°36' E 140°06'2 1.0
2016-Jul-17 04:34N 35°35' E 140°04'6 5.8
2016-Jul-17 03:33N 35°37' E 139°57'4 3.6
2016-Jul-17 02:31N 35°41' E 139°56'0 0.0
2016-Jul-17 01:32N 35°41' E 139°56'0 0.0
2016-Jul-17 00:31N 35°41' E 139°56'0 0.0
2016-Jul-16 23:20N 35°41' E 139°56'0 0.0
2016-Jul-16 22:25N 35°41' E 139°56'2 2.6
2016-Jul-16 21:33N 35°39' E 139°58'4 3.9
2016-Jul-16 20:33N 35°36' E 139°55'0 0.0
2016-Jul-16 19:33N 35°36' E 139°55'0 0.0
2016-Jul-16 18:33N 35°36' E 139°55'0 0.0
2016-Jul-16 17:33N 35°36' E 139°55'0 0.0
2016-Jul-16 16:30N 35°36' E 139°55'0 0.0
2016-Jul-16 15:33N 35°36' E 139°55'0 0.0
2016-Jul-16 14:33N 35°36' E 139°55'0 0.0
2016-Jul-16 13:30N 35°36' E 139°55'0 0.0
2016-Jul-16 12:33N 35°36' E 139°55'0 0.1
2016-Jul-16 11:33N 35°36' E 139°55'9 8.8
2016-Jul-16 10:33N 35°31' E 139°46'0 0.3
2016-Jul-16 09:31N 35°31' E 139°46'0 0.0
2016-Jul-16 08:31N 35°31' E 139°46'0 0.0
2016-Jul-16 07:28N 35°31' E 139°46'0 0.0
2016-Jul-16 06:31N 35°31' E 139°46'0 0.0
2016-Jul-16 04:31N 35°31' E 139°46'4 4.7
2016-Jul-16 03:33N 35°27' E 139°44'6 5.5
2016-Jul-16 02:33N 35°29' E 139°50'9 9.3
2016-Jul-16 01:33N 35°37' E 139°57'4 4.0
2016-Jul-16 00:32N 35°41' E 139°56'0 0.0
2016-Jul-15 23:14N 35°41' E 139°56'0 0.0
2016-Jul-15 22:32N 35°41' E 139°56'1 1.5
2016-Jul-15 21:32N 35°39' E 139°58'4 3.8
2016-Jul-15 20:29N 35°36' E 139°55'0 0.0
2016-Jul-15 19:32N 35°36' E 139°55'0 0.0
2016-Jul-15 18:23N 35°36' E 139°55'0 0.0
2016-Jul-15 17:29N 35°36' E 139°55'0 0.0
2016-Jul-15 16:29N 35°36' E 139°55'0 0.0
2016-Jul-15 14:32N 35°36' E 139°55'0 0.0
2016-Jul-15 13:32N 35°36' E 139°55'1 0.8
2016-Jul-15 12:33N 35°35' E 139°56'7 6.9
2016-Jul-15 11:30N 35°31' E 140°03'0 0.0
2016-Jul-15 10:30N 35°31' E 140°03'0 0.0
2016-Jul-15 09:33N 35°31' E 140°03'0 0.0
2016-Jul-15 08:33N 35°31' E 140°03'0 0.0
2016-Jul-15 07:33N 35°31' E 140°03'0 0.0
2016-Jul-15 06:33N 35°31' E 140°03'0 0.0
2016-Jul-15 05:33N 35°31' E 140°03'6 6.3
2016-Jul-15 04:33N 35°35' E 139°57'1 1.4
2016-Jul-15 03:33N 35°35' E 139°55'5 4.8
2016-Jul-15 02:33N 35°40' E 139°57'1 0.8
2016-Jul-15 01:18N 35°41' E 139°56'0 0.0
2016-Jul-15 00:24N 35°41' E 139°56'0 0.0
2016-Jul-14 23:06N 35°41' E 139°56'0 0.0
2016-Jul-14 22:24N 35°41' E 139°56'1 1.8
2016-Jul-14 21:33N 35°39' E 139°58'4 4.3
2016-Jul-14 20:31N 35°36' E 139°55'0 0.0
2016-Jul-14 19:31N 35°36' E 139°55'0 0.0
2016-Jul-14 18:31N 35°36' E 139°55'0 0.0
2016-Jul-14 17:31N 35°36' E 139°55'0 0.0
2016-Jul-14 16:31N 35°36' E 139°55'0 0.0
2016-Jul-14 15:31N 35°36' E 139°55'0 0.0
2016-Jul-14 14:31N 35°36' E 139°55'0 0.0
2016-Jul-14 13:33N 35°36' E 139°55'8 8.2
2016-Jul-14 12:33N 35°29' E 140°01'0 0.1
2016-Jul-14 11:31N 35°29' E 140°01'0 0.0
2016-Jul-14 09:13N 35°29' E 140°01'0 0.0
2016-Jul-14 08:31N 35°29' E 140°01'0 0.0
2016-Jul-14 07:07N 35°29' E 140°01'0 0.0
2016-Jul-14 06:31N 35°29' E 140°01'0 0.0
2016-Jul-14 04:33N 35°29' E 140°01'8 8.4
2016-Jul-14 03:33N 35°37' E 139°59'4 2.0
2016-Jul-14 01:32N 35°41' E 139°56'0 0.0
2016-Jul-14 00:32N 35°41' E 139°56'  

Dump ship's entire track history